createdAt,value
2023-03-12T00:01:50.251Z,1.58
2023-03-12T00:04:52.581Z,0.88
2023-03-12T00:07:55.012Z,0.90
2023-03-12T00:10:57.407Z,1.17
2023-03-12T00:14:02.553Z,0.90
2023-03-12T00:17:04.845Z,0.80
2023-03-12T00:20:07.541Z,0.93
2023-03-12T00:23:09.909Z,0.80
2023-03-12T00:26:13.323Z,1.07
2023-03-12T00:29:15.812Z,1.57
2023-03-12T00:32:18.316Z,0.70
2023-03-12T00:35:20.652Z,1.92
2023-03-12T00:38:23.011Z,1.10
2023-03-12T00:41:26.447Z,0.77
2023-03-12T00:44:28.762Z,0.97
2023-03-12T00:47:31.070Z,1.05
2023-03-12T00:50:33.412Z,0.88
2023-03-12T00:53:36.455Z,0.90
2023-03-12T00:56:38.795Z,0.90
2023-03-12T00:59:42.289Z,1.00
2023-03-12T01:02:44.652Z,0.70
2023-03-12T01:05:47.284Z,0.90
2023-03-12T01:08:50.015Z,0.82
2023-03-12T01:11:52.335Z,0.90
2023-03-12T01:14:54.646Z,0.90
2023-03-12T01:17:57.052Z,1.33
2023-03-12T01:20:59.588Z,0.90
2023-03-12T01:24:02.023Z,0.60
2023-03-12T01:27:04.508Z,1.50
2023-03-12T01:30:07.465Z,0.80
2023-03-12T01:33:09.868Z,1.00
2023-03-12T01:36:20.462Z,0.90
2023-03-12T01:39:23.401Z,0.70
2023-03-12T01:42:25.775Z,0.70
2023-03-12T01:45:53.002Z,0.90
2023-03-12T01:48:55.361Z,0.75
2023-03-12T01:52:07.893Z,0.88
2023-03-12T01:55:16.659Z,0.93
2023-03-12T01:58:22.269Z,0.87
2023-03-12T02:01:25.379Z,0.90
2023-03-12T02:04:31.617Z,1.23
2023-03-12T02:07:35.402Z,1.00
2023-03-12T02:10:37.926Z,0.90
2023-03-12T02:13:40.381Z,0.97
2023-03-12T02:16:43.390Z,1.00
2023-03-12T02:19:58.062Z,0.80
2023-03-12T02:23:10.968Z,1.20
2023-03-12T02:26:13.724Z,1.02
2023-03-12T02:29:16.481Z,1.00
2023-03-12T02:32:30.094Z,0.70
2023-03-12T02:35:32.857Z,0.90
2023-03-12T02:38:39.094Z,1.15
2023-03-12T02:41:43.542Z,0.70
2023-03-12T02:44:46.093Z,0.77
2023-03-12T02:47:48.557Z,1.10
2023-03-12T02:50:50.918Z,0.95
2023-03-12T02:53:55.125Z,0.77
2023-03-12T02:56:58.304Z,0.82
2023-03-12T03:00:01.504Z,1.17
2023-03-12T03:03:06.682Z,0.80
2023-03-12T03:06:09.319Z,1.10
2023-03-12T03:09:11.682Z,0.90
2023-03-12T03:12:14.187Z,0.88
2023-03-12T03:15:17.178Z,0.97
2023-03-12T03:18:19.691Z,0.90
2023-03-12T03:21:22.785Z,0.88
2023-03-12T03:24:25.425Z,0.80
2023-03-12T03:27:27.789Z,0.73
2023-03-12T03:30:30.187Z,0.90
2023-03-12T03:33:34.689Z,3.13
2023-03-12T03:36:37.828Z,0.75
2023-03-12T03:39:45.134Z,1.08
2023-03-12T03:42:48.169Z,0.90
2023-03-12T03:46:02.158Z,0.90
2023-03-12T03:49:06.818Z,1.07
2023-03-12T03:52:09.815Z,0.65
2023-03-12T03:55:12.552Z,1.30
2023-03-12T03:58:16.520Z,0.98
2023-03-12T04:01:19.982Z,0.93
2023-03-12T04:04:23.276Z,0.83
2023-03-12T04:07:27.176Z,0.95
2023-03-12T04:10:30.650Z,1.30
2023-03-12T04:13:33.146Z,1.15
2023-03-12T04:16:35.607Z,1.00
2023-03-12T04:19:38.901Z,0.70
2023-03-12T04:22:41.907Z,1.45
2023-03-12T04:25:44.691Z,1.08
2023-03-12T04:28:47.200Z,1.08
2023-03-12T04:31:49.784Z,1.07
2023-03-12T04:34:52.312Z,0.70
2023-03-12T04:37:55.890Z,0.70
2023-03-12T04:41:04.261Z,0.95
2023-03-12T04:44:06.954Z,1.15
2023-03-12T04:47:11.124Z,1.20
2023-03-12T04:50:13.914Z,1.23
2023-03-12T04:53:17.359Z,1.08
2023-03-12T04:56:20.088Z,1.25
2023-03-12T04:59:23.067Z,0.90
2023-03-12T05:02:26.323Z,1.20
2023-03-12T05:05:29.082Z,1.70
2023-03-12T05:08:31.531Z,1.27
2023-03-12T05:11:34.081Z,1.13
2023-03-12T05:14:36.899Z,1.00
2023-03-12T05:17:39.473Z,1.40
2023-03-12T05:20:43.022Z,1.57
2023-03-12T05:23:46.628Z,1.40
2023-03-12T05:26:49.874Z,1.45
2023-03-12T05:29:56.076Z,1.13
2023-03-12T05:32:58.998Z,1.57
2023-03-12T05:36:02.056Z,1.70
2023-03-12T05:39:04.697Z,1.38
2023-03-12T05:42:08.992Z,1.63
2023-03-12T05:45:12.160Z,1.50
2023-03-12T05:48:18.706Z,1.20
2023-03-12T05:51:21.737Z,1.17
2023-03-12T05:54:24.435Z,1.38
2023-03-12T05:57:27.858Z,1.00
2023-03-12T06:00:30.409Z,1.13
2023-03-12T06:03:35.134Z,1.40
2023-03-12T06:06:37.816Z,1.50
2023-03-12T06:09:40.558Z,1.48
2023-03-12T06:12:43.018Z,1.13
2023-03-12T06:15:45.664Z,0.90
2023-03-12T06:18:48.163Z,1.40
2023-03-12T06:21:52.366Z,1.47
2023-03-12T06:24:55.690Z,1.17
2023-03-12T06:27:58.344Z,1.13
2023-03-12T06:31:00.780Z,1.17
2023-03-12T06:34:03.266Z,0.80
2023-03-12T06:37:05.842Z,0.90
2023-03-12T06:40:10.878Z,1.00
2023-03-12T06:43:13.265Z,1.08
2023-03-12T06:46:18.327Z,1.00
2023-03-12T06:49:20.730Z,1.00
2023-03-12T06:52:23.073Z,1.17
2023-03-12T06:55:25.386Z,0.90
2023-03-12T06:58:27.741Z,0.82
2023-03-12T07:01:30.210Z,0.55
2023-03-12T07:04:32.537Z,0.70
2023-03-12T07:07:34.899Z,0.80
2023-03-12T07:10:37.318Z,0.98
2023-03-12T07:13:39.904Z,0.77
2023-03-12T07:16:42.426Z,0.65
2023-03-12T07:19:44.791Z,0.70
2023-03-12T07:22:47.154Z,0.90
2023-03-12T07:25:49.591Z,1.13
2023-03-12T07:28:52.072Z,1.45
2023-03-12T07:31:54.415Z,0.80
2023-03-12T07:34:56.758Z,0.77
2023-03-12T07:38:00.193Z,0.90
2023-03-12T07:41:02.676Z,1.15
2023-03-12T07:44:05.578Z,0.77
2023-03-12T07:47:22.840Z,0.93
2023-03-12T07:50:25.907Z,1.10
2023-03-12T07:53:28.244Z,1.23
2023-03-12T07:56:30.630Z,1.67
2023-03-12T07:59:33.685Z,1.40
2023-03-12T08:02:36.287Z,1.23
2023-03-12T08:05:39.032Z,1.00
2023-03-12T08:08:42.502Z,0.83
2023-03-12T08:11:45.017Z,1.15
2023-03-12T08:14:47.743Z,1.10
2023-03-12T08:17:50.118Z,0.98
2023-03-12T08:20:55.281Z,1.10
2023-03-12T08:23:57.662Z,1.00
2023-03-12T08:27:00.044Z,0.80
2023-03-12T08:30:02.447Z,0.90
2023-03-12T08:33:05.087Z,0.73
2023-03-12T08:36:07.987Z,1.10
2023-03-12T08:39:10.456Z,1.27
2023-03-12T08:42:12.826Z,0.82
2023-03-12T08:45:16.122Z,0.88
2023-03-12T08:48:18.440Z,1.00
2023-03-12T08:51:20.901Z,0.93
2023-03-12T08:54:23.302Z,0.90
2023-03-12T08:57:25.709Z,0.82
2023-03-12T09:00:28.197Z,1.42
2023-03-12T09:03:30.631Z,0.70
2023-03-12T09:06:35.412Z,0.80
2023-03-12T09:09:37.804Z,0.60
2023-03-12T09:12:40.211Z,0.80
2023-03-12T09:15:42.579Z,0.55
2023-03-12T09:18:44.949Z,1.08
2023-03-12T09:21:47.349Z,1.10
2023-03-12T09:24:49.798Z,0.73
2023-03-12T09:27:52.161Z,1.00
2023-03-12T09:30:54.571Z,0.77
2023-03-12T09:33:57.085Z,1.00
2023-03-12T09:36:59.472Z,1.13
2023-03-12T09:40:02.115Z,0.80
2023-03-12T09:43:07.934Z,1.30
2023-03-12T09:46:24.838Z,2.90
2023-03-12T09:49:45.004Z,1.70
2023-03-12T09:52:51.165Z,1.33
2023-03-12T09:55:56.382Z,1.13
2023-03-12T09:58:58.798Z,1.95
2023-03-12T10:02:03.875Z,7.75
2023-03-12T10:05:11.930Z,1.10
2023-03-12T10:08:31.693Z,2.40
2023-03-12T10:11:46.824Z,1.20
2023-03-12T10:15:15.779Z,4.45
2023-03-12T10:18:36.781Z,1.77
2023-03-12T10:21:55.118Z,3.83
2023-03-12T10:25:04.124Z,5.27
2023-03-12T10:28:46.218Z,5.87
2023-03-12T10:32:02.445Z,5.90
2023-03-12T10:35:16.031Z,2.78
2023-03-12T10:38:25.422Z,6.57
2023-03-12T10:41:34.751Z,4.80
2023-03-12T10:44:37.297Z,1.10
2023-03-12T10:47:41.397Z,2.10
2023-03-12T10:50:43.787Z,2.38
2023-03-12T10:53:48.441Z,1.02
2023-03-12T10:56:51.465Z,1.67
2023-03-12T11:00:06.864Z,2.37
2023-03-12T11:03:21.912Z,5.90
2023-03-12T11:06:27.561Z,4.15
2023-03-12T11:09:30.016Z,4.13
2023-03-12T11:12:34.766Z,2.73
2023-03-12T11:15:38.658Z,4.77
2023-03-12T11:18:41.092Z,2.45
2023-03-12T11:22:04.123Z,1.23
2023-03-12T11:25:07.796Z,5.35
2023-03-12T11:28:18.908Z,2.00
2023-03-12T11:31:41.462Z,1.67
2023-03-12T11:34:47.741Z,1.73
2023-03-12T11:38:04.199Z,1.02
2023-03-12T11:41:30.878Z,1.95
2023-03-12T11:44:42.336Z,2.30
2023-03-12T11:48:08.595Z,1.70
2023-03-12T11:51:17.539Z,2.83
2023-03-12T11:54:30.188Z,2.75
2023-03-12T11:58:37.301Z,3.33
2023-03-12T12:02:10.355Z,2.73
2023-03-12T12:05:36.722Z,2.50
2023-03-12T12:08:48.078Z,2.58
2023-03-12T12:12:05.705Z,2.67
2023-03-12T12:15:23.304Z,1.85
2023-03-12T12:18:28.371Z,3.43
2023-03-12T12:21:48.967Z,2.80
2023-03-12T12:25:06.306Z,3.30
2023-03-12T12:28:32.976Z,3.63
2023-03-12T12:31:44.853Z,2.65
2023-03-12T12:35:32.276Z,3.77
2023-03-12T12:39:28.558Z,3.70
2023-03-12T12:42:32.538Z,6.18
2023-03-12T12:45:38.752Z,5.03
2023-03-12T12:48:44.694Z,3.00
2023-03-12T12:52:00.225Z,1.83
2023-03-12T12:55:02.530Z,3.87
2023-03-12T12:58:12.115Z,3.17
2023-03-12T13:01:15.337Z,1.23
2023-03-12T13:04:31.019Z,1.60
2023-03-12T13:07:34.343Z,3.53
2023-03-12T13:10:36.793Z,7.30
2023-03-12T13:13:39.267Z,2.22
2023-03-12T13:16:43.397Z,1.33
2023-03-12T13:19:55.293Z,1.48
2023-03-12T13:23:39.206Z,9.10
2023-03-12T13:27:02.074Z,7.50
2023-03-12T13:30:35.459Z,3.47
2023-03-12T13:33:46.387Z,3.25
2023-03-12T13:36:51.992Z,7.25
2023-03-12T13:39:54.390Z,2.53
2023-03-12T13:43:31.199Z,2.83
2023-03-12T13:46:36.414Z,1.83
2023-03-12T13:49:45.114Z,3.17
2023-03-12T13:53:04.708Z,2.17
2023-03-12T13:56:11.047Z,1.93
2023-03-12T13:59:17.962Z,2.60
2023-03-12T14:02:33.539Z,1.45
2023-03-12T14:06:04.607Z,2.53
2023-03-12T14:09:24.542Z,2.63
2023-03-12T14:12:38.165Z,3.80
2023-03-12T14:16:06.474Z,3.47
2023-03-12T14:19:13.498Z,1.65
2023-03-12T14:22:16.671Z,2.40
2023-03-12T14:25:37.779Z,0.88
2023-03-12T14:28:41.821Z,2.50
2023-03-12T14:31:44.318Z,2.13
2023-03-12T14:34:51.725Z,6.55
2023-03-12T14:38:28.102Z,5.22
2023-03-12T14:41:34.566Z,3.67
2023-03-12T14:44:39.564Z,3.90
2023-03-12T14:47:56.308Z,9.63
2023-03-12T14:50:59.893Z,5.20
2023-03-12T14:54:03.463Z,1.65
2023-03-12T14:57:15.585Z,2.00
2023-03-12T15:00:26.211Z,2.93
2023-03-12T15:03:29.769Z,5.80
2023-03-12T15:06:32.120Z,4.70
2023-03-12T15:09:36.152Z,3.65
2023-03-12T15:12:38.773Z,2.40
2023-03-12T15:15:43.158Z,2.77
2023-03-12T15:18:47.572Z,1.70
2023-03-12T15:21:50.737Z,6.30
2023-03-12T15:24:53.574Z,5.78
2023-03-12T15:28:05.612Z,5.15
2023-03-12T15:31:08.316Z,2.60
2023-03-12T15:34:12.251Z,5.50
2023-03-12T15:37:33.763Z,3.03
2023-03-12T15:40:36.435Z,5.32
2023-03-12T15:43:38.807Z,5.82
2023-03-12T15:46:46.560Z,6.03
2023-03-12T15:49:53.182Z,3.13
2023-03-12T15:53:26.375Z,4.50
2023-03-12T15:56:31.641Z,19.52
2023-03-12T15:59:34.150Z,3.72
2023-03-12T16:02:46.889Z,6.67
2023-03-12T16:05:50.454Z,5.40
2023-03-12T16:09:01.137Z,2.78
2023-03-12T16:12:03.853Z,2.03
2023-03-12T16:15:06.721Z,3.50
2023-03-12T16:18:17.661Z,3.33
2023-03-12T16:21:20.211Z,3.37
2023-03-12T16:24:22.657Z,3.30
2023-03-12T16:27:32.497Z,3.80
2023-03-12T16:30:36.838Z,24.63
2023-03-12T16:33:39.457Z,9.40
2023-03-12T16:36:42.021Z,2.43
2023-03-12T16:39:46.480Z,7.03
2023-03-12T16:42:54.544Z,15.85
2023-03-12T16:45:57.943Z,4.93
2023-03-12T16:49:01.805Z,2.60
2023-03-12T16:52:34.094Z,2.63
2023-03-12T16:55:55.435Z,4.35
2023-03-12T16:58:59.798Z,4.20
2023-03-12T17:02:03.931Z,3.33
2023-03-12T17:05:06.857Z,4.43
2023-03-12T17:08:09.305Z,3.93
2023-03-12T17:11:18.792Z,4.30
2023-03-12T17:14:22.431Z,5.60
2023-03-12T17:17:25.408Z,4.97
2023-03-12T17:20:28.088Z,5.37
2023-03-12T17:23:30.453Z,6.13
2023-03-12T17:26:33.120Z,4.03
2023-03-12T17:29:35.626Z,5.10
2023-03-12T17:32:38.151Z,4.68
2023-03-12T17:35:41.615Z,5.17
2023-03-12T17:38:44.664Z,6.40
2023-03-12T17:41:47.233Z,6.47
2023-03-12T17:44:49.826Z,11.05
2023-03-12T17:47:52.296Z,26.90
2023-03-12T17:50:54.840Z,8.83
2023-03-12T17:53:57.423Z,9.13
2023-03-12T17:56:59.960Z,6.40
2023-03-12T18:00:02.546Z,8.05
2023-03-12T18:03:14.807Z,6.78
2023-03-12T18:06:19.703Z,8.73
2023-03-12T18:09:22.647Z,9.20
2023-03-12T18:12:25.710Z,9.85
2023-03-12T18:15:28.360Z,7.88
2023-03-12T18:18:30.969Z,7.85
2023-03-12T18:21:33.540Z,10.00
2023-03-12T18:24:36.114Z,9.10
2023-03-12T18:27:38.632Z,11.70
2023-03-12T18:30:41.344Z,7.53
2023-03-12T18:33:43.844Z,7.03
2023-03-12T18:36:46.642Z,9.97
2023-03-12T18:39:49.132Z,6.93
2023-03-12T18:42:51.655Z,7.40
2023-03-12T18:45:54.047Z,8.68
2023-03-12T18:48:56.666Z,11.55
2023-03-12T18:51:59.188Z,15.70
2023-03-12T18:55:01.590Z,21.70
2023-03-12T18:58:04.276Z,20.70
2023-03-12T19:01:06.940Z,20.65
2023-03-12T19:04:10.620Z,12.02
2023-03-12T19:07:13.548Z,20.90
2023-03-12T19:10:16.176Z,17.07
2023-03-12T19:13:18.704Z,17.83
2023-03-12T19:16:22.195Z,16.83
2023-03-12T19:19:24.866Z,18.17
2023-03-12T19:22:27.458Z,11.93
2023-03-12T19:25:30.155Z,9.33
2023-03-12T19:28:32.764Z,11.02
2023-03-12T19:31:35.140Z,12.55
2023-03-12T19:34:37.769Z,10.73
2023-03-12T19:37:40.547Z,13.13
2023-03-12T19:40:48.981Z,9.83
2023-03-12T19:43:51.577Z,7.32
2023-03-12T19:46:54.066Z,9.68
2023-03-12T19:49:56.609Z,10.70
2023-03-12T19:52:59.121Z,14.33
2023-03-12T19:56:01.631Z,12.90
2023-03-12T19:59:07.158Z,12.40
2023-03-12T20:02:12.924Z,14.45
2023-03-12T20:05:15.703Z,10.52
2023-03-12T20:08:20.969Z,10.97
2023-03-12T20:11:23.725Z,13.73
2023-03-12T20:14:27.565Z,16.92
2023-03-12T20:17:31.341Z,8.73
2023-03-12T20:20:33.927Z,22.15
2023-03-12T20:23:36.423Z,9.33
2023-03-12T20:26:42.654Z,10.60
2023-03-12T20:29:46.270Z,10.50
2023-03-12T20:32:48.943Z,9.63
2023-03-12T20:35:51.610Z,8.98
2023-03-12T20:38:54.175Z,8.27
2023-03-12T20:41:56.748Z,8.43
2023-03-12T20:44:59.265Z,12.00
2023-03-12T20:48:02.230Z,7.10
2023-03-12T20:51:05.061Z,7.13
2023-03-12T20:54:07.684Z,6.83
2023-03-12T20:57:10.360Z,9.30
2023-03-12T21:00:13.617Z,11.18
2023-03-12T21:03:17.310Z,7.80
2023-03-12T21:06:19.932Z,7.95
2023-03-12T21:09:23.382Z,10.57
2023-03-12T21:12:27.025Z,8.23
2023-03-12T21:15:29.546Z,9.30
2023-03-12T21:18:32.163Z,12.43
2023-03-12T21:21:36.481Z,7.40
2023-03-12T21:24:39.153Z,16.90
2023-03-12T21:27:50.558Z,11.37
2023-03-12T21:30:54.078Z,13.02
2023-03-12T21:33:59.540Z,9.40
2023-03-12T21:37:01.923Z,11.05
2023-03-12T21:40:05.135Z,9.23
2023-03-12T21:43:07.587Z,10.10
2023-03-12T21:46:15.541Z,8.23
2023-03-12T21:49:18.381Z,10.50
2023-03-12T21:52:20.872Z,9.13
2023-03-12T21:55:23.252Z,11.13
2023-03-12T21:58:26.283Z,8.23
2023-03-12T22:01:28.711Z,10.35
2023-03-12T22:04:32.267Z,8.48
2023-03-12T22:07:34.677Z,9.30
2023-03-12T22:10:36.964Z,9.50
2023-03-12T22:13:39.369Z,8.80
2023-03-12T22:16:41.691Z,7.30
2023-03-12T22:19:44.349Z,7.90
2023-03-12T22:22:46.758Z,7.47
2023-03-12T22:25:49.394Z,8.17
2023-03-12T22:28:54.731Z,7.20
2023-03-12T22:31:57.119Z,7.10
2023-03-12T22:34:59.507Z,6.20
2023-03-12T22:38:01.860Z,7.45
2023-03-12T22:41:24.847Z,6.43
2023-03-12T22:44:27.151Z,9.20
2023-03-12T22:47:29.468Z,6.03
2023-03-12T22:50:32.128Z,7.88
2023-03-12T22:53:34.782Z,9.27
2023-03-12T22:56:37.311Z,8.07
2023-03-12T22:59:39.676Z,7.37
2023-03-12T23:02:42.022Z,7.20
2023-03-12T23:05:44.377Z,7.70
2023-03-12T23:08:48.001Z,9.57
2023-03-12T23:11:50.679Z,7.90
2023-03-12T23:14:53.033Z,9.23
2023-03-12T23:17:55.373Z,7.30
2023-03-12T23:21:07.086Z,9.77
2023-03-12T23:24:09.889Z,7.40
2023-03-12T23:27:12.231Z,8.63
2023-03-12T23:30:14.940Z,7.27
2023-03-12T23:33:17.360Z,6.93
2023-03-12T23:36:22.018Z,7.68
2023-03-12T23:39:24.507Z,6.57
2023-03-12T23:42:27.938Z,5.60
2023-03-12T23:45:30.373Z,8.23
2023-03-12T23:48:33.886Z,8.10
2023-03-12T23:51:38.744Z,7.45
2023-03-12T23:54:41.076Z,8.15
2023-03-12T23:57:43.491Z,8.03
